Terminal Aerodrome Forecast
Issued by NWS Missoula, MT

Home | Current Version | Previous Version | Text Only | Print | Product List | Glossary On
Versions: 1 2 3 4 5 6 7 8 9 10 11 12 13 14 15 16 17 18 19 20 21
000
FTUS45 KMSO 200359 AAA
TAFGPI
TAF AMD
KGPI 200359Z 2004/2024 19003KT 1/4SM FG VCSH SCT050 BKN070
     FM200900 00000KT 1SM BR OVC020
     FM201600 VRB03KT 4SM BR OVC040=

USA.gov is the U.S. government's official web portal to all federal, state and local government web resources and services.